sensor_id;sensor_type;location;lat;lon;timestamp;temperature;humidity
41924;DHT22;27613;48.116;11.656;2023-05-07T00:01:33;12.20;99.90
41924;DHT22;27613;48.116;11.656;2023-05-07T00:03:58;12.20;99.90
41924;DHT22;27613;48.116;11.656;2023-05-07T00:06:24;12.20;99.90
41924;DHT22;27613;48.116;11.656;2023-05-07T00:08:51;12.20;99.90
41924;DHT22;27613;48.116;11.656;2023-05-07T00:11:16;12.10;99.90
41924;DHT22;27613;48.116;11.656;2023-05-07T00:13:42;12.10;99.90
41924;DHT22;27613;48.116;11.656;2023-05-07T00:16:07;12.10;99.90
41924;DHT22;27613;48.116;11.656;2023-05-07T00:18:33;12.10;99.90
41924;DHT22;27613;48.116;11.656;2023-05-07T00:20:58;12.00;99.90
41924;DHT22;27613;48.116;11.656;2023-05-07T00:23:24;12.00;99.90
41924;DHT22;27613;48.116;11.656;2023-05-07T00:25:49;12.00;99.90
41924;DHT22;27613;48.116;11.656;2023-05-07T00:28:15;12.00;99.90
41924;DHT22;27613;48.116;11.656;2023-05-07T00:30:40;12.00;99.90
41924;DHT22;27613;48.116;11.656;2023-05-07T00:33:06;12.00;99.90
41924;DHT22;27613;48.116;11.656;2023-05-07T00:35:31;12.00;99.90
41924;DHT22;27613;48.116;11.656;2023-05-07T00:37:57;11.90;99.90
41924;DHT22;27613;48.116;11.656;2023-05-07T00:40:23;11.90;99.90
41924;DHT22;27613;48.116;11.656;2023-05-07T00:42:49;11.90;99.90
41924;DHT22;27613;48.116;11.656;2023-05-07T00:45:15;11.90;99.90
41924;DHT22;27613;48.116;11.656;2023-05-07T00:47:41;11.90;99.90
41924;DHT22;27613;48.116;11.656;2023-05-07T00:50:08;11.90;99.90
41924;DHT22;27613;48.116;11.656;2023-05-07T00:52:37;11.80;99.90
41924;DHT22;27613;48.116;11.656;2023-05-07T00:55:05;11.90;99.90
41924;DHT22;27613;48.116;11.656;2023-05-07T00:57:40;11.80;99.90
41924;DHT22;27613;48.116;11.656;2023-05-07T01:00:09;11.80;99.90
41924;DHT22;27613;48.116;11.656;2023-05-07T01:02:35;11.80;99.90
41924;DHT22;27613;48.116;11.656;2023-05-07T01:05:02;11.80;99.90
41924;DHT22;27613;48.116;11.656;2023-05-07T01:07:29;11.70;99.90
41924;DHT22;27613;48.116;11.656;2023-05-07T01:09:55;11.70;99.90
41924;DHT22;27613;48.116;11.656;2023-05-07T01:12:21;11.60;99.90
41924;DHT22;27613;48.116;11.656;2023-05-07T01:14:46;11.60;99.90
41924;DHT22;27613;48.116;11.656;2023-05-07T01:17:14;11.60;99.90
41924;DHT22;27613;48.116;11.656;2023-05-07T01:19:40;11.60;99.90
41924;DHT22;27613;48.116;11.656;2023-05-07T01:22:10;11.60;99.90
41924;DHT22;27613;48.116;11.656;2023-05-07T01:24:37;11.60;99.90
41924;DHT22;27613;48.116;11.656;2023-05-07T01:27:03;11.50;99.90
41924;DHT22;27613;48.116;11.656;2023-05-07T01:29:28;11.50;99.90
41924;DHT22;27613;48.116;11.656;2023-05-07T01:31:57;11.50;99.90
41924;DHT22;27613;48.116;11.656;2023-05-07T01:34:25;11.50;99.90
41924;DHT22;27613;48.116;11.656;2023-05-07T01:36:54;11.50;99.90
41924;DHT22;27613;48.116;11.656;2023-05-07T01:39:22;11.40;99.90
41924;DHT22;27613;48.116;11.656;2023-05-07T01:41:49;11.50;99.90
41924;DHT22;27613;48.116;11.656;2023-05-07T01:44:15;11.50;99.90
41924;DHT22;27613;48.116;11.656;2023-05-07T01:46:41;11.40;99.90
41924;DHT22;27613;48.116;11.656;2023-05-07T01:49:07;11.40;99.90
41924;DHT22;27613;48.116;11.656;2023-05-07T01:51:33;11.40;99.90
41924;DHT22;27613;48.116;11.656;2023-05-07T01:53:59;11.30;99.90
41924;DHT22;27613;48.116;11.656;2023-05-07T01:56:25;11.30;99.90
41924;DHT22;27613;48.116;11.656;2023-05-07T01:58:51;11.20;99.90
41924;DHT22;27613;48.116;11.656;2023-05-07T02:01:17;11.20;99.90
41924;DHT22;27613;48.116;11.656;2023-05-07T02:03:43;11.20;99.90
41924;DHT22;27613;48.116;11.656;2023-05-07T02:06:09;11.20;99.90
41924;DHT22;27613;48.116;11.656;2023-05-07T02:08:34;11.10;99.90
41924;DHT22;27613;48.116;11.656;2023-05-07T02:11:00;11.10;99.90
41924;DHT22;27613;48.116;11.656;2023-05-07T02:13:29;11.10;99.90
41924;DHT22;27613;48.116;11.656;2023-05-07T02:15:55;11.10;99.90
41924;DHT22;27613;48.116;11.656;2023-05-07T02:18:21;11.10;99.90
41924;DHT22;27613;48.116;11.656;2023-05-07T02:20:46;11.10;99.90
41924;DHT22;27613;48.116;11.656;2023-05-07T02:23:12;11.10;99.90
41924;DHT22;27613;48.116;11.656;2023-05-07T02:25:38;11.00;99.90
41924;DHT22;27613;48.116;11.656;2023-05-07T02:28:03;11.00;99.90
41924;DHT22;27613;48.116;11.656;2023-05-07T02:30:29;11.00;99.90
41924;DHT22;27613;48.116;11.656;2023-05-07T02:32:55;11.00;99.90
41924;DHT22;27613;48.116;11.656;2023-05-07T02:35:20;11.00;99.90
41924;DHT22;27613;48.116;11.656;2023-05-07T02:37:46;11.10;99.90
41924;DHT22;27613;48.116;11.656;2023-05-07T02:40:12;10.90;99.90
41924;DHT22;27613;48.116;11.656;2023-05-07T02:42:37;11.00;99.90
41924;DHT22;27613;48.116;11.656;2023-05-07T02:45:03;10.90;99.90
41924;DHT22;27613;48.116;11.656;2023-05-07T02:47:29;10.90;99.90
41924;DHT22;27613;48.116;11.656;2023-05-07T02:49:55;10.90;99.90
41924;DHT22;27613;48.116;11.656;2023-05-07T02:52:21;10.90;99.90
41924;DHT22;27613;48.116;11.656;2023-05-07T02:54:47;10.90;99.90
41924;DHT22;27613;48.116;11.656;2023-05-07T02:57:12;10.90;99.90
41924;DHT22;27613;48.116;11.656;2023-05-07T02:59:38;10.90;99.90
41924;DHT22;27613;48.116;11.656;2023-05-07T03:02:03;10.90;99.90
41924;DHT22;27613;48.116;11.656;2023-05-07T03:04:29;10.80;99.90
41924;DHT22;27613;48.116;11.656;2023-05-07T03:06:54;10.80;99.90
41924;DHT22;27613;48.116;11.656;2023-05-07T03:09:20;10.80;99.90
41924;DHT22;27613;48.116;11.656;2023-05-07T03:11:46;10.80;99.90
41924;DHT22;27613;48.116;11.656;2023-05-07T03:14:12;10.70;99.90
41924;DHT22;27613;48.116;11.656;2023-05-07T03:16:38;10.80;99.90
41924;DHT22;27613;48.116;11.656;2023-05-07T03:19:03;10.70;99.90
41924;DHT22;27613;48.116;11.656;2023-05-07T03:21:29;10.70;99.90
41924;DHT22;27613;48.116;11.656;2023-05-07T03:23:55;10.70;99.90
41924;DHT22;27613;48.116;11.656;2023-05-07T03:26:21;10.60;99.90
41924;DHT22;27613;48.116;11.656;2023-05-07T03:28:47;10.60;99.90
41924;DHT22;27613;48.116;11.656;2023-05-07T03:31:13;10.60;99.90
41924;DHT22;27613;48.116;11.656;2023-05-07T03:33:52;10.60;99.90
41924;DHT22;27613;48.116;11.656;2023-05-07T03:36:18;10.60;99.90
41924;DHT22;27613;48.116;11.656;2023-05-07T03:38:44;10.50;99.90
41924;DHT22;27613;48.116;11.656;2023-05-07T03:41:09;10.50;99.90
41924;DHT22;27613;48.116;11.656;2023-05-07T03:43:35;10.50;99.90
41924;DHT22;27613;48.116;11.656;2023-05-07T03:46:01;10.50;99.90
41924;DHT22;27613;48.116;11.656;2023-05-07T03:48:26;10.40;99.90
41924;DHT22;27613;48.116;11.656;2023-05-07T03:50:52;10.50;99.90
41924;DHT22;27613;48.116;11.656;2023-05-07T03:53:17;10.50;99.90
41924;DHT22;27613;48.116;11.656;2023-05-07T03:55:43;10.50;99.90
41924;DHT22;27613;48.116;11.656;2023-05-07T03:58:08;10.50;99.90
41924;DHT22;27613;48.116;11.656;2023-05-07T04:00:34;10.40;99.90
41924;DHT22;27613;48.116;11.656;2023-05-07T04:03:03;10.40;99.90
41924;DHT22;27613;48.116;11.656;2023-05-07T04:05:30;10.40;99.90
41924;DHT22;27613;48.116;11.656;2023-05-07T04:07:55;10.40;99.90
41924;DHT22;27613;48.116;11.656;2023-05-07T04:10:21;10.40;99.90
41924;DHT22;27613;48.116;11.656;2023-05-07T04:12:46;10.40;99.90
41924;DHT22;27613;48.116;11.656;2023-05-07T04:15:12;10.40;99.90
41924;DHT22;27613;48.116;11.656;2023-05-07T04:17:37;10.40;99.90
41924;DHT22;27613;48.116;11.656;2023-05-07T04:20:04;10.40;99.90
41924;DHT22;27613;48.116;11.656;2023-05-07T04:22:29;10.40;99.90
41924;DHT22;27613;48.116;11.656;2023-05-07T04:24:55;10.40;99.90
41924;DHT22;27613;48.116;11.656;2023-05-07T04:27:21;10.50;99.90
41924;DHT22;27613;48.116;11.656;2023-05-07T04:29:47;10.50;99.90
41924;DHT22;27613;48.116;11.656;2023-05-07T04:32:12;10.50;99.90
41924;DHT22;27613;48.116;11.656;2023-05-07T04:34:38;10.50;99.90
41924;DHT22;27613;48.116;11.656;2023-05-07T04:37:04;10.60;99.90
41924;DHT22;27613;48.116;11.656;2023-05-07T04:39:29;10.60;99.90
41924;DHT22;27613;48.116;11.656;2023-05-07T04:41:55;10.60;99.90
41924;DHT22;27613;48.116;11.656;2023-05-07T04:44:20;10.70;99.90
41924;DHT22;27613;48.116;11.656;2023-05-07T04:46:46;10.70;99.90
41924;DHT22;27613;48.116;11.656;2023-05-07T04:49:11;10.80;99.90
41924;DHT22;27613;48.116;11.656;2023-05-07T04:51:37;10.90;99.90
41924;DHT22;27613;48.116;11.656;2023-05-07T04:54:03;10.90;99.90
41924;DHT22;27613;48.116;11.656;2023-05-07T04:56:29;10.90;99.90
41924;DHT22;27613;48.116;11.656;2023-05-07T04:58:57;11.00;99.90
41924;DHT22;27613;48.116;11.656;2023-05-07T05:01:23;11.00;99.90
41924;DHT22;27613;48.116;11.656;2023-05-07T05:03:48;11.00;99.90
41924;DHT22;27613;48.116;11.656;2023-05-07T05:06:14;11.00;99.90
41924;DHT22;27613;48.116;11.656;2023-05-07T05:08:39;11.00;99.90
41924;DHT22;27613;48.116;11.656;2023-05-07T05:11:05;11.00;99.90
41924;DHT22;27613;48.116;11.656;2023-05-07T05:13:30;11.00;99.90
41924;DHT22;27613;48.116;11.656;2023-05-07T05:15:56;11.00;99.90
41924;DHT22;27613;48.116;11.656;2023-05-07T05:18:22;11.00;99.90
41924;DHT22;27613;48.116;11.656;2023-05-07T05:20:47;11.00;99.90
41924;DHT22;27613;48.116;11.656;2023-05-07T05:23:13;11.00;99.90
41924;DHT22;27613;48.116;11.656;2023-05-07T05:25:38;11.10;99.90
41924;DHT22;27613;48.116;11.656;2023-05-07T05:28:05;11.20;99.90
41924;DHT22;27613;48.116;11.656;2023-05-07T05:30:31;11.20;99.90
41924;DHT22;27613;48.116;11.656;2023-05-07T05:32:56;11.30;99.90
41924;DHT22;27613;48.116;11.656;2023-05-07T05:35:22;11.40;99.90
41924;DHT22;27613;48.116;11.656;2023-05-07T05:37:47;11.40;99.90
41924;DHT22;27613;48.116;11.656;2023-05-07T05:40:13;11.50;99.90
41924;DHT22;27613;48.116;11.656;2023-05-07T05:42:39;11.50;99.90
41924;DHT22;27613;48.116;11.656;2023-05-07T05:45:05;11.60;99.90
41924;DHT22;27613;48.116;11.656;2023-05-07T05:47:31;11.70;99.90
41924;DHT22;27613;48.116;11.656;2023-05-07T05:49:56;11.70;99.90
41924;DHT22;27613;48.116;11.656;2023-05-07T05:52:22;11.80;99.90
41924;DHT22;27613;48.116;11.656;2023-05-07T05:54:49;11.90;99.90
41924;DHT22;27613;48.116;11.656;2023-05-07T05:57:15;12.00;99.90
41924;DHT22;27613;48.116;11.656;2023-05-07T05:59:40;12.00;99.90
41924;DHT22;27613;48.116;11.656;2023-05-07T06:02:06;12.10;99.90
41924;DHT22;27613;48.116;11.656;2023-05-07T06:04:32;12.20;99.90
41924;DHT22;27613;48.116;11.656;2023-05-07T06:06:58;12.30;99.90
41924;DHT22;27613;48.116;11.656;2023-05-07T06:09:23;12.30;99.90
41924;DHT22;27613;48.116;11.656;2023-05-07T06:11:49;12.50;99.90
41924;DHT22;27613;48.116;11.656;2023-05-07T06:14:15;12.60;99.90
41924;DHT22;27613;48.116;11.656;2023-05-07T06:16:40;12.70;99.90
41924;DHT22;27613;48.116;11.656;2023-05-07T06:19:07;12.70;99.90
41924;DHT22;27613;48.116;11.656;2023-05-07T06:21:32;13.00;99.90
41924;DHT22;27613;48.116;11.656;2023-05-07T06:23:58;13.00;99.90
41924;DHT22;27613;48.116;11.656;2023-05-07T06:26:23;13.10;99.90
41924;DHT22;27613;48.116;11.656;2023-05-07T06:28:49;13.20;99.90
41924;DHT22;27613;48.116;11.656;2023-05-07T06:31:16;13.30;99.90
41924;DHT22;27613;48.116;11.656;2023-05-07T06:33:42;13.40;99.90
41924;DHT22;27613;48.116;11.656;2023-05-07T06:36:08;13.50;99.90
41924;DHT22;27613;48.116;11.656;2023-05-07T06:38:34;13.60;99.90
41924;DHT22;27613;48.116;11.656;2023-05-07T06:40:59;13.70;99.90
41924;DHT22;27613;48.116;11.656;2023-05-07T06:43:25;13.90;99.90
41924;DHT22;27613;48.116;11.656;2023-05-07T06:45:50;14.00;99.90
41924;DHT22;27613;48.116;11.656;2023-05-07T06:48:16;14.20;99.90
41924;DHT22;27613;48.116;11.656;2023-05-07T06:50:42;14.40;99.90
41924;DHT22;27613;48.116;11.656;2023-05-07T06:53:07;14.60;99.90
41924;DHT22;27613;48.116;11.656;2023-05-07T06:55:33;14.70;99.90
41924;DHT22;27613;48.116;11.656;2023-05-07T06:57:58;14.90;99.90
41924;DHT22;27613;48.116;11.656;2023-05-07T07:00:26;15.20;99.90
41924;DHT22;27613;48.116;11.656;2023-05-07T07:02:53;15.40;99.90
41924;DHT22;27613;48.116;11.656;2023-05-07T07:05:19;15.50;99.90
41924;DHT22;27613;48.116;11.656;2023-05-07T07:07:44;15.50;99.90
41924;DHT22;27613;48.116;11.656;2023-05-07T07:10:21;15.50;99.90
41924;DHT22;27613;48.116;11.656;2023-05-07T07:12:46;15.50;99.90
41924;DHT22;27613;48.116;11.656;2023-05-07T07:15:13;15.90;99.90
41924;DHT22;27613;48.116;11.656;2023-05-07T07:17:39;15.90;99.90
41924;DHT22;27613;48.116;11.656;2023-05-07T07:20:05;16.00;99.90
41924;DHT22;27613;48.116;11.656;2023-05-07T07:22:30;16.10;99.90
41924;DHT22;27613;48.116;11.656;2023-05-07T07:24:56;16.40;99.90
41924;DHT22;27613;48.116;11.656;2023-05-07T07:27:21;16.30;99.90
41924;DHT22;27613;48.116;11.656;2023-05-07T07:29:47;16.50;99.90
41924;DHT22;27613;48.116;11.656;2023-05-07T07:32:12;16.60;99.90
41924;DHT22;27613;48.116;11.656;2023-05-07T07:34:38;16.60;99.90
41924;DHT22;27613;48.116;11.656;2023-05-07T07:37:03;16.80;99.90
41924;DHT22;27613;48.116;11.656;2023-05-07T07:39:32;16.90;99.90
41924;DHT22;27613;48.116;11.656;2023-05-07T07:41:57;17.00;99.90
41924;DHT22;27613;48.116;11.656;2023-05-07T07:44:23;17.10;99.90
41924;DHT22;27613;48.116;11.656;2023-05-07T07:46:48;17.30;99.90
41924;DHT22;27613;48.116;11.656;2023-05-07T07:49:14;17.30;99.90
41924;DHT22;27613;48.116;11.656;2023-05-07T07:51:40;17.50;99.90
41924;DHT22;27613;48.116;11.656;2023-05-07T07:54:06;17.60;99.90
41924;DHT22;27613;48.116;11.656;2023-05-07T07:56:32;17.70;99.90
41924;DHT22;27613;48.116;11.656;2023-05-07T07:58:58;17.70;99.90
41924;DHT22;27613;48.116;11.656;2023-05-07T08:01:24;17.70;99.90
41924;DHT22;27613;48.116;11.656;2023-05-07T08:03:50;17.80;99.90
41924;DHT22;27613;48.116;11.656;2023-05-07T08:06:15;17.90;99.90
41924;DHT22;27613;48.116;11.656;2023-05-07T08:08:41;18.00;99.90
41924;DHT22;27613;48.116;11.656;2023-05-07T08:11:06;18.20;99.90
41924;DHT22;27613;48.116;11.656;2023-05-07T08:13:32;18.30;99.90
41924;DHT22;27613;48.116;11.656;2023-05-07T08:15:58;18.40;99.90
41924;DHT22;27613;48.116;11.656;2023-05-07T08:18:25;18.50;99.90
41924;DHT22;27613;48.116;11.656;2023-05-07T08:20:51;18.70;99.90
41924;DHT22;27613;48.116;11.656;2023-05-07T08:23:16;18.90;99.90
41924;DHT22;27613;48.116;11.656;2023-05-07T08:25:42;18.90;99.90
41924;DHT22;27613;48.116;11.656;2023-05-07T08:28:08;19.10;99.90
41924;DHT22;27613;48.116;11.656;2023-05-07T08:30:34;19.20;99.90
41924;DHT22;27613;48.116;11.656;2023-05-07T08:33:00;19.40;99.90
41924;DHT22;27613;48.116;11.656;2023-05-07T08:35:25;19.60;99.30
41924;DHT22;27613;48.116;11.656;2023-05-07T08:37:52;20.00;98.30
41924;DHT22;27613;48.116;11.656;2023-05-07T08:40:18;20.10;97.10
41924;DHT22;27613;48.116;11.656;2023-05-07T08:42:44;20.20;96.60
41924;DHT22;27613;48.116;11.656;2023-05-07T08:45:10;20.60;94.00
41924;DHT22;27613;48.116;11.656;2023-05-07T08:47:44;20.60;93.50
41924;DHT22;27613;48.116;11.656;2023-05-07T08:50:11;20.70;90.50
41924;DHT22;27613;48.116;11.656;2023-05-07T08:52:37;20.90;90.60
41924;DHT22;27613;48.116;11.656;2023-05-07T08:55:04;21.50;91.60
41924;DHT22;27613;48.116;11.656;2023-05-07T08:57:30;21.80;88.60
41924;DHT22;27613;48.116;11.656;2023-05-07T08:59:56;22.30;86.30
41924;DHT22;27613;48.116;11.656;2023-05-07T09:02:21;22.80;84.50
41924;DHT22;27613;48.116;11.656;2023-05-07T09:04:47;23.20;81.50
41924;DHT22;27613;48.116;11.656;2023-05-07T09:07:13;23.70;78.80
41924;DHT22;27613;48.116;11.656;2023-05-07T09:09:38;24.20;75.20
41924;DHT22;27613;48.116;11.656;2023-05-07T09:12:04;24.60;74.60
41924;DHT22;27613;48.116;11.656;2023-05-07T09:14:30;25.20;70.80
41924;DHT22;27613;48.116;11.656;2023-05-07T09:16:56;26.10;68.70
41924;DHT22;27613;48.116;11.656;2023-05-07T09:19:26;26.20;67.80
41924;DHT22;27613;48.116;11.656;2023-05-07T09:22:03;26.70;66.10
41924;DHT22;27613;48.116;11.656;2023-05-07T09:24:29;26.70;64.10
41924;DHT22;27613;48.116;11.656;2023-05-07T09:26:59;27.10;62.30
41924;DHT22;27613;48.116;11.656;2023-05-07T09:29:26;27.50;62.20
41924;DHT22;27613;48.116;11.656;2023-05-07T09:31:54;28.00;60.40
41924;DHT22;27613;48.116;11.656;2023-05-07T09:34:20;28.00;61.00
41924;DHT22;27613;48.116;11.656;2023-05-07T09:36:45;27.80;60.20
41924;DHT22;27613;48.116;11.656;2023-05-07T09:39:11;28.20;59.20
41924;DHT22;27613;48.116;11.656;2023-05-07T09:41:48;28.50;56.80
41924;DHT22;27613;48.116;11.656;2023-05-07T09:44:14;29.10;56.60
41924;DHT22;27613;48.116;11.656;2023-05-07T09:46:43;28.30;56.80
41924;DHT22;27613;48.116;11.656;2023-05-07T09:49:18;29.00;57.40
41924;DHT22;27613;48.116;11.656;2023-05-07T09:51:50;29.80;56.90
41924;DHT22;27613;48.116;11.656;2023-05-07T09:54:17;29.80;54.90
41924;DHT22;27613;48.116;11.656;2023-05-07T09:56:43;30.00;53.00
41924;DHT22;27613;48.116;11.656;2023-05-07T09:59:14;30.00;51.70
41924;DHT22;27613;48.116;11.656;2023-05-07T10:01:41;30.70;52.50
41924;DHT22;27613;48.116;11.656;2023-05-07T10:04:07;30.70;53.30
41924;DHT22;27613;48.116;11.656;2023-05-07T10:06:35;30.70;52.80
41924;DHT22;27613;48.116;11.656;2023-05-07T10:09:02;31.00;53.40
41924;DHT22;27613;48.116;11.656;2023-05-07T10:11:28;30.80;52.80
41924;DHT22;27613;48.116;11.656;2023-05-07T10:13:53;31.00;51.20
41924;DHT22;27613;48.116;11.656;2023-05-07T10:16:20;31.20;51.50
41924;DHT22;27613;48.116;11.656;2023-05-07T10:18:46;31.00;52.10
41924;DHT22;27613;48.116;11.656;2023-05-07T10:21:21;30.70;52.00
41924;DHT22;27613;48.116;11.656;2023-05-07T10:23:57;31.00;50.20
41924;DHT22;27613;48.116;11.656;2023-05-07T10:26:24;30.20;51.80
41924;DHT22;27613;48.116;11.656;2023-05-07T10:29:01;29.50;52.60
41924;DHT22;27613;48.116;11.656;2023-05-07T10:33:53;29.70;51.30
41924;DHT22;27613;48.116;11.656;2023-05-07T10:36:21;30.30;50.50
41924;DHT22;27613;48.116;11.656;2023-05-07T10:38:47;30.10;49.00
41924;DHT22;27613;48.116;11.656;2023-05-07T10:41:13;30.10;49.80
41924;DHT22;27613;48.116;11.656;2023-05-07T10:43:42;29.50;51.20
41924;DHT22;27613;48.116;11.656;2023-05-07T10:46:15;29.10;52.80
41924;DHT22;27613;48.116;11.656;2023-05-07T10:51:25;28.40;55.30
41924;DHT22;27613;48.116;11.656;2023-05-07T10:54:23;28.50;54.20
41924;DHT22;27613;48.116;11.656;2023-05-07T10:56:49;28.80;53.60
41924;DHT22;27613;48.116;11.656;2023-05-07T11:01:56;28.80;53.30
41924;DHT22;27613;48.116;11.656;2023-05-07T11:04:27;29.10;55.00
41924;DHT22;27613;48.116;11.656;2023-05-07T11:15:08;30.40;52.60
41924;DHT22;27613;48.116;11.656;2023-05-07T11:17:34;30.20;53.20
41924;DHT22;27613;48.116;11.656;2023-05-07T11:20:02;30.10;53.50
41924;DHT22;27613;48.116;11.656;2023-05-07T11:25:00;29.50;52.40
41924;DHT22;27613;48.116;11.656;2023-05-07T11:27:26;29.30;54.70
41924;DHT22;27613;48.116;11.656;2023-05-07T11:29:52;29.10;55.20
41924;DHT22;27613;48.116;11.656;2023-05-07T11:32:26;29.20;54.50
41924;DHT22;27613;48.116;11.656;2023-05-07T11:34:53;29.60;54.10
41924;DHT22;27613;48.116;11.656;2023-05-07T11:37:19;30.50;53.60
41924;DHT22;27613;48.116;11.656;2023-05-07T11:39:45;30.60;52.70
41924;DHT22;27613;48.116;11.656;2023-05-07T11:42:34;31.10;52.90
41924;DHT22;27613;48.116;11.656;2023-05-07T11:45:00;31.50;52.50
41924;DHT22;27613;48.116;11.656;2023-05-07T11:47:26;31.60;52.20
41924;DHT22;27613;48.116;11.656;2023-05-07T11:49:55;31.60;52.10
41924;DHT22;27613;48.116;11.656;2023-05-07T11:52:22;30.90;52.70
41924;DHT22;27613;48.116;11.656;2023-05-07T11:54:55;31.50;52.30
41924;DHT22;27613;48.116;11.656;2023-05-07T11:57:21;30.90;52.00
41924;DHT22;27613;48.116;11.656;2023-05-07T11:59:47;30.10;52.90
41924;DHT22;27613;48.116;11.656;2023-05-07T12:02:14;28.90;55.10
41924;DHT22;27613;48.116;11.656;2023-05-07T12:04:41;28.30;55.70
41924;DHT22;27613;48.116;11.656;2023-05-07T12:07:16;28.50;56.60
41924;DHT22;27613;48.116;11.656;2023-05-07T12:09:42;29.30;55.20
41924;DHT22;27613;48.116;11.656;2023-05-07T12:12:08;29.80;53.80
41924;DHT22;27613;48.116;11.656;2023-05-07T12:14:48;30.50;52.40
41924;DHT22;27613;48.116;11.656;2023-05-07T12:17:14;30.60;53.50
41924;DHT22;27613;48.116;11.656;2023-05-07T12:19:41;31.50;52.60
41924;DHT22;27613;48.116;11.656;2023-05-07T12:22:08;31.90;51.10
41924;DHT22;27613;48.116;11.656;2023-05-07T12:24:48;31.80;49.70
41924;DHT22;27613;48.116;11.656;2023-05-07T12:27:15;32.40;50.00
41924;DHT22;27613;48.116;11.656;2023-05-07T12:29:48;32.40;49.00
41924;DHT22;27613;48.116;11.656;2023-05-07T12:32:17;32.20;51.20
41924;DHT22;27613;48.116;11.656;2023-05-07T12:34:44;31.60;50.50
41924;DHT22;27613;48.116;11.656;2023-05-07T12:37:10;31.20;50.20
41924;DHT22;27613;48.116;11.656;2023-05-07T12:39:35;31.10;50.90
41924;DHT22;27613;48.116;11.656;2023-05-07T12:42:01;31.10;51.90
41924;DHT22;27613;48.116;11.656;2023-05-07T12:44:31;30.70;50.70
41924;DHT22;27613;48.116;11.656;2023-05-07T12:46:57;30.80;51.00
41924;DHT22;27613;48.116;11.656;2023-05-07T12:49:23;31.30;50.90
41924;DHT22;27613;48.116;11.656;2023-05-07T12:51:49;30.70;51.60
41924;DHT22;27613;48.116;11.656;2023-05-07T12:54:35;31.00;50.40
41924;DHT22;27613;48.116;11.656;2023-05-07T12:57:07;30.40;50.60
41924;DHT22;27613;48.116;11.656;2023-05-07T12:59:34;28.80;53.50
41924;DHT22;27613;48.116;11.656;2023-05-07T13:02:00;29.20;53.00
41924;DHT22;27613;48.116;11.656;2023-05-07T13:04:26;29.30;51.80
41924;DHT22;27613;48.116;11.656;2023-05-07T13:06:52;29.30;52.00
41924;DHT22;27613;48.116;11.656;2023-05-07T13:09:17;29.00;52.80
41924;DHT22;27613;48.116;11.656;2023-05-07T13:11:43;29.60;51.20
41924;DHT22;27613;48.116;11.656;2023-05-07T13:14:08;30.20;51.00
41924;DHT22;27613;48.116;11.656;2023-05-07T13:16:34;30.20;50.60
41924;DHT22;27613;48.116;11.656;2023-05-07T13:18:59;30.00;49.70
41924;DHT22;27613;48.116;11.656;2023-05-07T13:21:25;30.30;50.10
41924;DHT22;27613;48.116;11.656;2023-05-07T13:23:52;28.90;52.10
41924;DHT22;27613;48.116;11.656;2023-05-07T13:26:18;29.10;51.60
41924;DHT22;27613;48.116;11.656;2023-05-07T13:28:43;29.60;52.20
41924;DHT22;27613;48.116;11.656;2023-05-07T13:31:09;29.90;50.90
41924;DHT22;27613;48.116;11.656;2023-05-07T13:33:35;30.20;50.30
41924;DHT22;27613;48.116;11.656;2023-05-07T13:36:01;30.70;49.60
41924;DHT22;27613;48.116;11.656;2023-05-07T13:38:29;30.80;50.40
41924;DHT22;27613;48.116;11.656;2023-05-07T13:40:54;31.80;48.00
41924;DHT22;27613;48.116;11.656;2023-05-07T13:43:20;32.30;47.10
41924;DHT22;27613;48.116;11.656;2023-05-07T13:45:46;32.10;47.00
41924;DHT22;27613;48.116;11.656;2023-05-07T13:48:11;31.50;47.50
41924;DHT22;27613;48.116;11.656;2023-05-07T13:50:37;31.50;47.40
41924;DHT22;27613;48.116;11.656;2023-05-07T13:53:02;31.40;47.10
41924;DHT22;27613;48.116;11.656;2023-05-07T13:55:29;31.10;48.80
41924;DHT22;27613;48.116;11.656;2023-05-07T13:57:59;31.50;47.20
41924;DHT22;27613;48.116;11.656;2023-05-07T14:00:26;31.00;49.20
41924;DHT22;27613;48.116;11.656;2023-05-07T14:02:52;31.80;47.50
41924;DHT22;27613;48.116;11.656;2023-05-07T14:05:18;32.50;46.00
41924;DHT22;27613;48.116;11.656;2023-05-07T14:07:44;32.70;46.60
41924;DHT22;27613;48.116;11.656;2023-05-07T14:10:10;32.20;46.70
41924;DHT22;27613;48.116;11.656;2023-05-07T14:12:36;32.20;46.50
41924;DHT22;27613;48.116;11.656;2023-05-07T14:15:02;32.90;46.90
41924;DHT22;27613;48.116;11.656;2023-05-07T14:17:28;32.90;45.80
41924;DHT22;27613;48.116;11.656;2023-05-07T14:19:54;32.80;46.40
41924;DHT22;27613;48.116;11.656;2023-05-07T14:22:21;32.80;46.50
41924;DHT22;27613;48.116;11.656;2023-05-07T14:24:47;32.40;45.90
41924;DHT22;27613;48.116;11.656;2023-05-07T14:27:13;31.20;47.20
41924;DHT22;27613;48.116;11.656;2023-05-07T14:29:38;30.30;48.20
41924;DHT22;27613;48.116;11.656;2023-05-07T14:32:04;29.90;49.40
41924;DHT22;27613;48.116;11.656;2023-05-07T14:34:29;29.50;49.70
41924;DHT22;27613;48.116;11.656;2023-05-07T14:36:55;28.60;52.70
41924;DHT22;27613;48.116;11.656;2023-05-07T14:39:21;28.50;51.80
41924;DHT22;27613;48.116;11.656;2023-05-07T14:41:47;27.80;53.10
41924;DHT22;27613;48.116;11.656;2023-05-07T14:44:12;27.70;53.20
41924;DHT22;27613;48.116;11.656;2023-05-07T14:46:38;27.40;54.80
41924;DHT22;27613;48.116;11.656;2023-05-07T14:49:03;27.20;53.90
41924;DHT22;27613;48.116;11.656;2023-05-07T14:51:29;26.90;54.20
41924;DHT22;27613;48.116;11.656;2023-05-07T14:53:56;26.60;54.40
41924;DHT22;27613;48.116;11.656;2023-05-07T14:56:21;26.60;55.20
41924;DHT22;27613;48.116;11.656;2023-05-07T14:58:47;26.40;56.70
41924;DHT22;27613;48.116;11.656;2023-05-07T15:01:14;26.00;56.70
41924;DHT22;27613;48.116;11.656;2023-05-07T15:03:40;26.00;56.50
41924;DHT22;27613;48.116;11.656;2023-05-07T15:06:05;26.10;56.80
41924;DHT22;27613;48.116;11.656;2023-05-07T15:08:31;26.10;56.20
41924;DHT22;27613;48.116;11.656;2023-05-07T15:10:56;25.60;57.20
41924;DHT22;27613;48.116;11.656;2023-05-07T15:13:22;25.50;58.30
41924;DHT22;27613;48.116;11.656;2023-05-07T15:15:48;25.60;58.60
41924;DHT22;27613;48.116;11.656;2023-05-07T15:18:15;25.40;58.90
41924;DHT22;27613;48.116;11.656;2023-05-07T15:20:41;25.40;58.80
41924;DHT22;27613;48.116;11.656;2023-05-07T15:23:07;25.40;59.40
41924;DHT22;27613;48.116;11.656;2023-05-07T15:25:36;25.40;58.50
41924;DHT22;27613;48.116;11.656;2023-05-07T15:28:02;25.60;59.00
41924;DHT22;27613;48.116;11.656;2023-05-07T15:30:27;25.70;58.90